Time;durP1;ratioP1;P1;durP2;ratioP2;P2;SDS_P1;SDS_P2;PMS_P1;PMS_P2;Temp;Humidity;BMP_temperature;BMP_pressure;BME280_temperature;BME280_humidity;BME280_pressure;Samples;Min_cycle;Max_cycle;Signal;HPM_P1;HPM_P2
2021/03/21 00:01:32;;;;;;;;;23.50;23.25;;;;;;;;5010889;28;12517;-79
2021/03/21 00:03:59;;;;;;;;;30.25;25.00;;;;;;;;5005787;28;11669;-86
2021/03/21 00:06:26;;;;;;;;;27.50;27.50;;;;;;;;5004539;28;12470;-85
2021/03/21 00:08:53;;;;;;;;;38.50;29.50;;;;;;;;5005038;28;12824;-83
2021/03/21 00:11:20;;;;;;;;;26.50;24.00;;;;;;;;5007484;28;11654;-76
2021/03/21 00:13:47;;;;;;;;;36.00;27.50;;;;;;;;5005216;28;11646;-84
2021/03/21 00:16:16;;;;;;;;;24.00;21.50;;;;;;;;5005118;28;11724;-85
2021/03/21 00:18:44;;;;;;;;;28.25;26.75;;;;;;;;5004202;28;11626;-84
2021/03/21 00:21:13;;;;;;;;;32.00;27.50;;;;;;;;5005394;28;11610;-85
2021/03/21 00:23:40;;;;;;;;;28.00;24.75;;;;;;;;5004109;28;11659;-82
2021/03/21 00:26:09;;;;;;;;;30.50;27.25;;;;;;;;5005534;28;11684;-82
2021/03/21 00:28:37;;;;;;;;;31.25;28.50;;;;;;;;5004220;28;12431;-84
2021/03/21 00:31:06;;;;;;;;;34.25;28.75;;;;;;;;5005240;28;11627;-83
2021/03/21 00:33:36;;;;;;;;;40.25;33.25;;;;;;;;5010509;28;11636;-82
2021/03/21 00:36:05;;;;;;;;;26.75;26.75;;;;;;;;5004008;28;11667;-84
2021/03/21 00:38:34;;;;;;;;;24.25;24.25;;;;;;;;5004517;28;11656;-82
2021/03/21 00:41:02;;;;;;;;;31.25;27.75;;;;;;;;5002592;28;11721;-83
2021/03/21 00:43:29;;;;;;;;;38.75;37.50;;;;;;;;5004400;28;11635;-84
2021/03/21 00:45:56;;;;;;;;;28.00;27.75;;;;;;;;5003283;28;11663;-84
2021/03/21 00:48:25;;;;;;;;;45.25;40.00;;;;;;;;5004823;28;11659;-81
2021/03/21 00:50:54;;;;;;;;;32.75;31.00;;;;;;;;5004095;28;11679;-82
2021/03/21 00:53:22;;;;;;;;;37.75;33.75;;;;;;;;5004486;28;11653;-82
2021/03/21 00:55:49;;;;;;;;;32.25;28.25;;;;;;;;5003866;28;11628;-81
2021/03/21 00:58:17;;;;;;;;;35.75;28.50;;;;;;;;5003539;28;11644;-82
2021/03/21 01:00:45;;;;;;;;;35.75;31.00;;;;;;;;5004359;28;11690;-83
2021/03/21 01:03:13;;;;;;;;;40.75;33.25;;;;;;;;5003068;28;11611;-81
2021/03/21 01:05:41;;;;;;;;;36.50;33.75;;;;;;;;5004517;28;11665;-81
2021/03/21 01:08:19;;;;;;;;;33.75;31.00;;;;;;;;5003925;28;11623;-81
2021/03/21 01:10:46;;;;;;;;;35.00;28.75;;;;;;;;5003604;28;11641;-82
2021/03/21 01:13:13;;;;;;;;;41.25;35.00;;;;;;;;5004422;28;11662;-83
2021/03/21 01:15:40;;;;;;;;;32.25;29.00;;;;;;;;5002488;28;11667;-84
2021/03/21 01:18:08;;;;;;;;;30.25;28.00;;;;;;;;5003489;28;11649;-82
2021/03/21 01:20:35;;;;;;;;;29.75;23.25;;;;;;;;5002874;28;11625;-83
2021/03/21 01:23:02;;;;;;;;;40.25;33.25;;;;;;;;5004307;28;11680;-82
2021/03/21 01:25:30;;;;;;;;;32.75;27.00;;;;;;;;5003331;28;11609;-84
2021/03/21 01:27:57;;;;;;;;;27.75;21.25;;;;;;;;5003729;28;11771;-83
2021/03/21 01:30:26;;;;;;;;;31.75;27.00;;;;;;;;5004502;28;11543;-83
2021/03/21 01:32:53;;;;;;;;;31.50;27.75;;;;;;;;5007734;28;11763;-83
2021/03/21 01:35:20;;;;;;;;;30.00;25.00;;;;;;;;5004405;28;11642;-85
2021/03/21 01:37:47;;;;;;;;;29.25;28.00;;;;;;;;5003535;28;11720;-84
2021/03/21 01:40:17;;;;;;;;;32.00;29.50;;;;;;;;5003076;28;11586;-84
2021/03/21 01:42:47;;;;;;;;;32.00;30.00;;;;;;;;5002214;28;11726;-85
2021/03/21 01:45:40;;;;;;;;;27.00;27.00;;;;;;;;5004214;28;12423;-84
2021/03/21 01:48:13;;;;;;;;;38.25;33.00;;;;;;;;5004932;28;11649;-85
2021/03/21 01:50:47;;;;;;;;;34.75;31.75;;;;;;;;5001475;28;11628;-83
2021/03/21 01:53:15;;;;;;;;;33.50;21.25;;;;;;;;5005582;28;11650;-82
2021/03/21 01:55:42;;;;;;;;;36.25;32.00;;;;;;;;5008108;28;11688;-84
2021/03/21 01:58:10;;;;;;;;;36.75;32.25;;;;;;;;5007796;28;11633;-86
2021/03/21 02:00:39;;;;;;;;;35.00;30.50;;;;;;;;5007197;28;11552;-84
2021/03/21 02:03:07;;;;;;;;;40.00;33.00;;;;;;;;5013190;28;11643;-81
2021/03/21 02:05:36;;;;;;;;;24.75;22.50;;;;;;;;5008876;28;11756;-83
2021/03/21 02:08:31;;;;;;;;;29.00;24.25;;;;;;;;5007271;28;11651;-84
2021/03/21 02:11:06;;;;;;;;;34.00;32.50;;;;;;;;5006759;28;11623;-78
2021/03/21 02:13:41;;;;;;;;;35.50;33.00;;;;;;;;5007357;28;11637;-82
2021/03/21 02:16:11;;;;;;;;;32.00;32.00;;;;;;;;5006009;28;11649;-77
2021/03/21 02:18:45;;;;;;;;;50.50;38.25;;;;;;;;5007699;28;11739;-86
2021/03/21 02:21:25;;;;;;;;;31.75;28.00;;;;;;;;5006219;28;11631;-81
2021/03/21 02:24:18;;;;;;;;;35.25;29.25;;;;;;;;5007012;28;11631;-82
2021/03/21 02:27:10;;;;;;;;;43.00;40.25;;;;;;;;4999249;28;11767;-84
2021/03/21 02:29:47;;;;;;;;;36.25;27.00;;;;;;;;5006591;28;11726;-87
2021/03/21 02:32:18;;;;;;;;;38.25;36.50;;;;;;;;5006819;28;11619;-88
2021/03/21 02:34:51;;;;;;;;;66.00;51.00;;;;;;;;4997023;28;11661;-88
2021/03/21 02:37:26;;;;;;;;;33.25;32.00;;;;;;;;5006365;28;11682;-86
2021/03/21 02:39:59;;;;;;;;;38.00;30.75;;;;;;;;5004140;28;12268;-89
2021/03/21 02:42:30;;;;;;;;;47.25;40.75;;;;;;;;5003412;28;11637;-83
2021/03/21 02:45:05;;;;;;;;;47.00;34.75;;;;;;;;5007357;28;11769;-89
2021/03/21 02:47:32;;;;;;;;;27.00;25.00;;;;;;;;5006419;28;12457;-84
2021/03/21 02:50:00;;;;;;;;;30.00;30.00;;;;;;;;5005186;28;11763;-86
2021/03/21 02:52:38;;;;;;;;;41.00;34.75;;;;;;;;5007365;28;11614;-87
2021/03/21 02:55:12;;;;;;;;;34.00;32.25;;;;;;;;4989436;28;12428;-85
2021/03/21 02:57:42;;;;;;;;;32.50;29.75;;;;;;;;5007416;28;11726;-84
2021/03/21 03:00:13;;;;;;;;;35.25;30.75;;;;;;;;5004684;28;11653;-79
2021/03/21 03:02:45;;;;;;;;;40.00;32.75;;;;;;;;5006772;28;11641;-84
2021/03/21 03:05:15;;;;;;;;;37.50;32.25;;;;;;;;5003873;28;11628;-81
2021/03/21 03:07:47;;;;;;;;;39.50;31.00;;;;;;;;5002350;28;11726;-84
2021/03/21 03:10:17;;;;;;;;;36.75;35.00;;;;;;;;5010704;28;11614;-79
2021/03/21 03:12:48;;;;;;;;;24.25;21.25;;;;;;;;5005763;28;11637;-84
2021/03/21 03:15:19;;;;;;;;;36.00;35.25;;;;;;;;5005143;28;11677;-83
2021/03/21 03:17:52;;;;;;;;;35.75;34.25;;;;;;;;5005700;28;11666;-81
2021/03/21 03:20:25;;;;;;;;;41.25;36.25;;;;;;;;5006404;28;11672;-83
2021/03/21 03:22:54;;;;;;;;;30.50;27.75;;;;;;;;5002747;28;11743;-83
2021/03/21 03:25:27;;;;;;;;;34.75;31.00;;;;;;;;5005832;28;11676;-84
2021/03/21 03:28:09;;;;;;;;;40.50;36.75;;;;;;;;5006492;28;11781;-83
2021/03/21 03:30:39;;;;;;;;;29.00;25.50;;;;;;;;5005053;28;11642;-83
2021/03/21 03:33:08;;;;;;;;;41.00;35.25;;;;;;;;5004408;28;12398;-82
2021/03/21 03:35:36;;;;;;;;;31.75;28.50;;;;;;;;5005462;28;11621;-82
2021/03/21 03:38:05;;;;;;;;;34.50;31.50;;;;;;;;5005916;28;11870;-85
2021/03/21 03:40:35;;;;;;;;;32.50;30.25;;;;;;;;5006261;28;12535;-85
2021/03/21 03:43:12;;;;;;;;;36.25;34.75;;;;;;;;5005799;28;11644;-84
2021/03/21 03:45:51;;;;;;;;;32.00;30.00;;;;;;;;5006662;28;11629;-82
2021/03/21 03:48:31;;;;;;;;;37.00;30.00;;;;;;;;5002936;28;11653;-83
2021/03/21 03:51:03;;;;;;;;;26.00;23.75;;;;;;;;5002625;28;11638;-75
2021/03/21 03:53:49;;;;;;;;;34.25;32.00;;;;;;;;5006241;28;11714;-79
2021/03/21 03:56:19;;;;;;;;;28.00;24.25;;;;;;;;5004344;28;11643;-73
2021/03/21 03:58:55;;;;;;;;;32.50;28.50;;;;;;;;5004644;28;11604;-76
2021/03/21 04:01:32;;;;;;;;;43.50;39.00;;;;;;;;5003764;28;11548;-82
2021/03/21 04:04:07;;;;;;;;;30.25;30.25;;;;;;;;5004793;28;11706;-80
2021/03/21 04:06:39;;;;;;;;;31.50;27.00;;;;;;;;5004709;28;11691;-80
2021/03/21 04:09:14;;;;;;;;;32.25;26.00;;;;;;;;5003901;28;12457;-80
2021/03/21 04:11:46;;;;;;;;;38.50;31.50;;;;;;;;5014895;28;13962;-81
2021/03/21 04:14:16;;;;;;;;;40.75;35.25;;;;;;;;5003736;28;11626;-80
2021/03/21 04:16:53;;;;;;;;;37.00;25.50;;;;;;;;5002954;28;11663;-79
2021/03/21 04:19:24;;;;;;;;;31.50;27.00;;;;;;;;5004237;28;11626;-81
2021/03/21 04:21:55;;;;;;;;;40.50;31.75;;;;;;;;5003382;28;11670;-81
2021/03/21 04:24:25;;;;;;;;;34.00;27.75;;;;;;;;5004916;28;11617;-79
2021/03/21 04:26:55;;;;;;;;;27.75;24.50;;;;;;;;5002287;28;12626;-82
2021/03/21 04:29:25;;;;;;;;;21.50;19.75;;;;;;;;5004554;28;11653;-81
2021/03/21 04:31:55;;;;;;;;;38.75;27.00;;;;;;;;5004613;28;11593;-83
2021/03/21 04:34:23;;;;;;;;;40.75;33.00;;;;;;;;5003920;28;11737;-79
2021/03/21 04:36:50;;;;;;;;;29.50;26.25;;;;;;;;5004359;28;11615;-83
2021/03/21 04:39:19;;;;;;;;;37.25;33.75;;;;;;;;5004332;28;11640;-83
2021/03/21 04:41:47;;;;;;;;;42.50;34.25;;;;;;;;5004964;28;11613;-84
2021/03/21 04:44:18;;;;;;;;;31.75;30.75;;;;;;;;5003103;28;11628;-84
2021/03/21 04:46:50;;;;;;;;;28.75;24.50;;;;;;;;5004821;28;11617;-81
2021/03/21 04:49:20;;;;;;;;;31.25;27.00;;;;;;;;5003590;28;11607;-83
2021/03/21 04:51:48;;;;;;;;;28.75;24.75;;;;;;;;5004782;28;12249;-84
2021/03/21 04:54:18;;;;;;;;;43.50;36.75;;;;;;;;5004844;28;11713;-84
2021/03/21 04:56:48;;;;;;;;;37.00;35.50;;;;;;;;5003419;28;11632;-85
2021/03/21 04:59:17;;;;;;;;;36.00;34.75;;;;;;;;5004812;28;11636;-85
2021/03/21 05:01:55;;;;;;;;;47.25;38.00;;;;;;;;5002427;28;11620;-84
2021/03/21 05:04:25;;;;;;;;;39.75;34.25;;;;;;;;5004552;28;11765;-84
2021/03/21 05:06:56;;;;;;;;;48.25;42.75;;;;;;;;5004834;28;11629;-84
2021/03/21 05:09:25;;;;;;;;;40.00;33.50;;;;;;;;5003570;28;11741;-80
2021/03/21 05:11:57;;;;;;;;;47.25;41.00;;;;;;;;5013056;28;11750;-80
2021/03/21 05:14:30;;;;;;;;;41.75;38.75;;;;;;;;5004199;28;11653;-82
2021/03/21 05:17:16;;;;;;;;;42.25;37.00;;;;;;;;5004026;28;11632;-79
2021/03/21 05:19:52;;;;;;;;;39.25;35.25;;;;;;;;5003692;28;11739;-82
2021/03/21 05:22:27;;;;;;;;;39.50;38.75;;;;;;;;5002014;28;11680;-85
2021/03/21 05:24:58;;;;;;;;;56.25;45.25;;;;;;;;5001157;28;11640;-77
2021/03/21 05:27:30;;;;;;;;;59.50;47.50;;;;;;;;5001237;28;12425;-87
2021/03/21 05:30:00;;;;;;;;;37.50;31.25;;;;;;;;5002658;28;11628;-85
2021/03/21 05:32:28;;;;;;;;;45.75;38.25;;;;;;;;5011080;28;11575;-84
2021/03/21 05:34:58;;;;;;;;;43.00;40.75;;;;;;;;5003834;28;11664;-82
2021/03/21 05:37:34;;;;;;;;;48.00;39.75;;;;;;;;5003462;28;11623;-85
2021/03/21 05:40:14;;;;;;;;;42.25;41.25;;;;;;;;5000201;28;11644;-80
2021/03/21 05:43:17;;;;;;;;;58.00;42.25;;;;;;;;5004070;28;11653;-82
2021/03/21 05:46:10;;;;;;;;;45.00;34.50;;;;;;;;5000545;28;12427;-83
2021/03/21 05:48:57;;;;;;;;;33.75;28.00;;;;;;;;4998795;28;11764;-76
2021/03/21 05:52:02;;;;;;;;;43.75;42.25;;;;;;;;4996852;28;11628;-75
2021/03/21 05:55:07;;;;;;;;;57.50;43.50;;;;;;;;5003280;28;11732;-74
2021/03/21 05:57:58;;;;;;;;;43.25;40.50;;;;;;;;5001161;28;11660;-83
2021/03/21 06:00:43;;;;;;;;;49.25;41.25;;;;;;;;4976487;28;11662;-82
2021/03/21 06:03:31;;;;;;;;;54.25;40.50;;;;;;;;5003735;28;11647;-82
2021/03/21 06:06:33;;;;;;;;;59.00;42.75;;;;;;;;4991586;28;11658;-83
2021/03/21 06:09:12;;;;;;;;;43.75;39.25;;;;;;;;5002330;28;12536;-81
2021/03/21 06:11:53;;;;;;;;;37.50;37.50;;;;;;;;5007410;28;11655;-82
2021/03/21 06:14:56;;;;;;;;;29.75;29.75;;;;;;;;5002453;28;12399;-77
2021/03/21 06:18:05;;;;;;;;;48.25;42.50;;;;;;;;4999292;28;11702;-74
2021/03/21 06:21:10;;;;;;;;;32.75;30.50;;;;;;;;4999438;28;11741;-83
2021/03/21 06:24:06;;;;;;;;;46.25;41.00;;;;;;;;5001926;28;11618;-80
2021/03/21 06:26:37;;;;;;;;;52.25;40.50;;;;;;;;5002592;28;11647;-80
2021/03/21 06:29:40;;;;;;;;;47.25;37.50;;;;;;;;5001305;28;11680;-83
2021/03/21 06:32:39;;;;;;;;;45.00;39.25;;;;;;;;4970462;28;11652;-72
2021/03/21 06:35:16;;;;;;;;;50.00;40.50;;;;;;;;4999664;28;11619;-81
2021/03/21 06:38:06;;;;;;;;;40.50;37.50;;;;;;;;4996646;28;11734;-74
2021/03/21 06:40:49;;;;;;;;;43.25;40.75;;;;;;;;5008151;28;11635;-73
2021/03/21 06:43:38;;;;;;;;;59.50;50.00;;;;;;;;5005157;28;12228;-74
2021/03/21 06:46:19;;;;;;;;;42.75;37.75;;;;;;;;4995243;28;11105;-72
2021/03/21 06:49:25;;;;;;;;;44.25;41.25;;;;;;;;5006375;28;11640;-75
2021/03/21 06:51:59;;;;;;;;;67.25;54.75;;;;;;;;5001143;28;11728;-74
2021/03/21 06:54:45;;;;;;;;;53.25;44.00;;;;;;;;4997554;28;11644;-74
2021/03/21 06:57:54;;;;;;;;;50.75;39.25;;;;;;;;5005553;28;11626;-75
2021/03/21 07:00:56;;;;;;;;;43.25;37.50;;;;;;;;5006066;28;11732;-74
2021/03/21 07:03:56;;;;;;;;;40.25;36.00;;;;;;;;4922916;29;12409;-74
2021/03/21 07:06:59;;;;;;;;;47.25;41.25;;;;;;;;5002490;28;11656;-73
2021/03/21 07:09:50;;;;;;;;;33.25;30.00;;;;;;;;5006693;28;11652;-73
2021/03/21 07:12:56;;;;;;;;;44.75;38.00;;;;;;;;5004582;28;11615;-73
2021/03/21 07:15:53;;;;;;;;;39.75;33.00;;;;;;;;4996215;28;11654;-72
2021/03/21 07:18:58;;;;;;;;;36.50;32.25;;;;;;;;5004802;28;11806;-73
2021/03/21 07:22:04;;;;;;;;;42.50;37.50;;;;;;;;4992648;28;11631;-74
2021/03/21 07:24:53;;;;;;;;;51.00;41.25;;;;;;;;5004711;28;11837;-74
2021/03/21 07:27:52;;;;;;;;;44.00;38.50;;;;;;;;5005229;28;11616;-73
2021/03/21 07:30:27;;;;;;;;;43.25;40.00;;;;;;;;5004587;28;12377;-74
2021/03/21 07:33:27;;;;;;;;;53.75;41.50;;;;;;;;5005231;28;11699;-74
2021/03/21 07:36:20;;;;;;;;;42.00;40.25;;;;;;;;5006019;28;11725;-73
2021/03/21 07:39:03;;;;;;;;;52.75;43.75;;;;;;;;5002646;28;11652;-73
2021/03/21 07:41:40;;;;;;;;;43.25;41.00;;;;;;;;5004981;28;11606;-72
2021/03/21 07:44:25;;;;;;;;;51.50;42.25;;;;;;;;5003671;28;11645;-70
2021/03/21 07:47:11;;;;;;;;;48.00;41.50;;;;;;;;5003914;28;11658;-71
2021/03/21 07:50:08;;;;;;;;;44.00;40.00;;;;;;;;4987440;28;12450;-70
2021/03/21 07:52:54;;;;;;;;;36.25;36.00;;;;;;;;5002295;28;11569;-70
2021/03/21 07:55:27;;;;;;;;;47.00;41.00;;;;;;;;4999781;28;11644;-68
2021/03/21 07:58:08;;;;;;;;;49.50;40.00;;;;;;;;5003316;28;11616;-69
2021/03/21 08:00:35;;;;;;;;;40.75;38.75;;;;;;;;5003305;28;11550;-69
2021/03/21 08:03:28;;;;;;;;;46.00;40.25;;;;;;;;5003318;28;11633;-69
2021/03/21 08:05:56;;;;;;;;;47.50;39.00;;;;;;;;5003669;28;11624;-68
2021/03/21 08:08:26;;;;;;;;;41.25;37.25;;;;;;;;5003580;28;11599;-69
2021/03/21 08:10:56;;;;;;;;;47.25;41.25;;;;;;;;5007340;28;11564;-68
2021/03/21 08:13:31;;;;;;;;;41.25;39.00;;;;;;;;5000200;28;11656;-69
2021/03/21 08:15:58;;;;;;;;;50.50;42.50;;;;;;;;5004199;28;11663;-69
2021/03/21 08:18:30;;;;;;;;;50.75;42.00;;;;;;;;5003876;28;11659;-69
2021/03/21 08:20:59;;;;;;;;;58.50;48.75;;;;;;;;5002904;28;11728;-69
2021/03/21 08:23:28;;;;;;;;;59.75;49.00;;;;;;;;5004436;28;11632;-68
2021/03/21 08:25:57;;;;;;;;;70.50;55.50;;;;;;;;5001535;28;11746;-68
2021/03/21 08:28:35;;;;;;;;;52.00;41.75;;;;;;;;5000882;28;11692;-69
2021/03/21 08:31:04;;;;;;;;;61.00;45.25;;;;;;;;5002990;28;11492;-69
2021/03/21 08:33:34;;;;;;;;;54.00;45.00;;;;;;;;5007828;28;11616;-68
2021/03/21 08:36:17;;;;;;;;;59.75;48.50;;;;;;;;5004765;28;12369;-68
2021/03/21 08:39:00;;;;;;;;;59.00;50.00;;;;;;;;4992350;28;11696;-68
2021/03/21 08:41:29;;;;;;;;;61.00;50.00;;;;;;;;5002000;28;11637;-68
2021/03/21 08:44:01;;;;;;;;;56.00;47.25;;;;;;;;5002368;28;11641;-68
2021/03/21 08:46:28;;;;;;;;;48.50;43.75;;;;;;;;5003150;28;11562;-69
2021/03/21 08:49:05;;;;;;;;;54.75;43.25;;;;;;;;5002872;28;11668;-68
2021/03/21 08:51:40;;;;;;;;;49.75;42.00;;;;;;;;5002491;28;11577;-68
2021/03/21 08:54:16;;;;;;;;;53.50;45.00;;;;;;;;5001685;28;11575;-68
2021/03/21 08:56:58;;;;;;;;;50.00;44.00;;;;;;;;5001725;28;11554;-67
2021/03/21 08:59:31;;;;;;;;;46.00;41.25;;;;;;;;4998500;28;11561;-68
2021/03/21 09:02:01;;;;;;;;;52.75;44.00;;;;;;;;5002051;28;11574;-68
2021/03/21 09:04:29;;;;;;;;;58.50;49.50;;;;;;;;5001830;28;11574;-68
2021/03/21 09:07:17;;;;;;;;;76.25;60.00;;;;;;;;5003824;28;11688;-68
2021/03/21 09:09:44;;;;;;;;;54.00;45.25;;;;;;;;5001952;28;11635;-69
2021/03/21 09:12:30;;;;;;;;;59.00;49.00;;;;;;;;5006898;28;11913;-68
2021/03/21 09:15:30;;;;;;;;;62.00;46.00;;;;;;;;5003753;28;12360;-67
2021/03/21 09:18:13;;;;;;;;;52.50;44.75;;;;;;;;5002286;28;11619;-69
2021/03/21 09:20:43;;;;;;;;;56.00;42.25;;;;;;;;4998695;28;12435;-70
2021/03/21 09:23:32;;;;;;;;;58.25;46.50;;;;;;;;4997522;28;12315;-68
2021/03/21 09:25:59;;;;;;;;;55.25;41.75;;;;;;;;5001496;28;11592;-68
2021/03/21 09:28:32;;;;;;;;;50.25;44.25;;;;;;;;5003010;28;11598;-68
2021/03/21 09:31:01;;;;;;;;;51.25;42.50;;;;;;;;5000859;28;11516;-70
2021/03/21 09:33:32;;;;;;;;;57.50;45.25;;;;;;;;5003213;28;11727;-67
2021/03/21 09:36:05;;;;;;;;;61.00;49.00;;;;;;;;5002525;28;11636;-69
2021/03/21 09:38:34;;;;;;;;;61.00;45.75;;;;;;;;4997916;28;11583;-69
2021/03/21 09:41:06;;;;;;;;;56.00;44.50;;;;;;;;4995771;28;11559;-70
2021/03/21 09:43:35;;;;;;;;;57.75;45.75;;;;;;;;4994830;28;11555;-69
2021/03/21 09:46:23;;;;;;;;;63.25;50.25;;;;;;;;5004280;28;11633;-69
2021/03/21 09:49:05;;;;;;;;;59.75;48.25;;;;;;;;4994879;28;11683;-69
2021/03/21 09:51:45;;;;;;;;;50.00;43.50;;;;;;;;4999421;28;11695;-69
2021/03/21 09:54:29;;;;;;;;;62.50;53.50;;;;;;;;4996501;28;11555;-68
2021/03/21 09:57:04;;;;;;;;;62.25;50.50;;;;;;;;4994939;28;11707;-69
2021/03/21 09:59:45;;;;;;;;;85.00;65.00;;;;;;;;4998729;28;11591;-69
2021/03/21 10:02:20;;;;;;;;;62.00;48.00;;;;;;;;4979841;28;11609;-70
2021/03/21 10:04:55;;;;;;;;;83.00;66.25;;;;;;;;4998858;28;11595;-68
2021/03/21 10:07:34;;;;;;;;;66.50;53.75;;;;;;;;5000180;28;11634;-68
2021/03/21 10:10:03;;;;;;;;;90.25;68.25;;;;;;;;4999306;28;11599;-70
2021/03/21 10:12:30;;;;;;;;;66.25;53.25;;;;;;;;4991978;28;11880;-70
2021/03/21 10:15:07;;;;;;;;;41.25;34.00;;;;;;;;5002831;28;11574;-70
2021/03/21 10:17:46;;;;;;;;;55.50;46.75;;;;;;;;4999257;28;11346;-70
2021/03/21 10:20:14;;;;;;;;;61.25;50.75;;;;;;;;5000949;28;11432;-69
2021/03/21 10:23:03;;;;;;;;;53.25;43.00;;;;;;;;5003765;28;11560;-69
2021/03/21 10:25:53;;;;;;;;;53.50;42.25;;;;;;;;5002061;28;11200;-69
2021/03/21 10:28:35;;;;;;;;;53.75;45.75;;;;;;;;5001005;28;11854;-68
2021/03/21 10:31:39;;;;;;;;;43.25;37.75;;;;;;;;5005220;28;11193;-68
2021/03/21 10:34:46;;;;;;;;;45.25;41.25;;;;;;;;5003327;28;11800;-68
2021/03/21 10:37:24;;;;;;;;;47.25;40.25;;;;;;;;5005932;28;11186;-70
2021/03/21 10:40:00;;;;;;;;;49.00;41.50;;;;;;;;5003099;28;10972;-69
2021/03/21 10:42:42;;;;;;;;;39.25;35.00;;;;;;;;5006009;28;10965;-69
2021/03/21 10:45:11;;;;;;;;;52.00;41.50;;;;;;;;5002949;28;10940;-69
2021/03/21 10:47:47;;;;;;;;;40.25;38.75;;;;;;;;5007931;28;10949;-70
2021/03/21 10:50:53;;;;;;;;;39.50;37.00;;;;;;;;5002835;28;10723;-69
2021/03/21 10:53:32;;;;;;;;;27.25;24.25;;;;;;;;4948121;28;10492;-69
2021/03/21 10:56:08;;;;;;;;;40.75;36.00;;;;;;;;4998524;28;10579;-71
2021/03/21 10:59:17;;;;;;;;;29.25;27.00;;;;;;;;5004031;28;11497;-69
2021/03/21 11:01:45;;;;;;;;;24.25;22.25;;;;;;;;4973748;28;10461;-69
2021/03/21 11:04:32;;;;;;;;;14.00;14.00;;;;;;;;5002494;28;10134;-68
2021/03/21 11:07:11;;;;;;;;;19.75;15.00;;;;;;;;5004675;28;9985;-71
2021/03/21 11:09:51;;;;;;;;;20.00;20.00;;;;;;;;5003050;28;10029;-71
2021/03/21 11:12:32;;;;;;;;;22.50;19.00;;;;;;;;5004435;28;9985;-71
2021/03/21 11:15:19;;;;;;;;;18.25;18.25;;;;;;;;5002790;28;9898;-70
2021/03/21 11:17:46;;;;;;;;;22.50;18.50;;;;;;;;5004004;28;9893;-72
2021/03/21 11:20:28;;;;;;;;;21.00;16.75;;;;;;;;5002790;28;10063;-72
2021/03/21 11:22:57;;;;;;;;;20.00;16.25;;;;;;;;5002125;28;10000;-73
2021/03/21 11:25:34;;;;;;;;;20.75;17.75;;;;;;;;5004149;28;9839;-72
2021/03/21 11:28:02;;;;;;;;;14.00;13.50;;;;;;;;5003504;28;9853;-72
2021/03/21 11:30:30;;;;;;;;;17.50;15.50;;;;;;;;5003198;28;9690;-72
2021/03/21 11:32:58;;;;;;;;;13.75;13.75;;;;;;;;5004868;28;9888;-72
2021/03/21 11:35:28;;;;;;;;;14.50;13.00;;;;;;;;5003122;28;9764;-72
2021/03/21 11:37:56;;;;;;;;;13.00;13.00;;;;;;;;5002735;28;9633;-71
2021/03/21 11:40:25;;;;;;;;;10.50;9.25;;;;;;;;5003945;28;9790;-71
2021/03/21 11:43:09;;;;;;;;;13.00;10.00;;;;;;;;5004963;28;9507;-73
2021/03/21 11:45:37;;;;;;;;;11.50;11.50;;;;;;;;5001771;28;9573;-72
2021/03/21 11:48:19;;;;;;;;;10.50;8.00;;;;;;;;5004540;28;9515;-71
2021/03/21 11:50:47;;;;;;;;;10.33;9.00;;;;;;;;4995247;28;9526;-70
2021/03/21 11:53:17;;;;;;;;;9.00;9.00;;;;;;;;5004364;28;9419;-71
2021/03/21 11:55:48;;;;;;;;;10.00;9.67;;;;;;;;5003070;28;9283;-72
2021/03/21 11:58:21;;;;;;;;;10.00;8.00;;;;;;;;5001138;28;10259;-71
2021/03/21 12:00:57;;;;;;;;;7.00;7.00;;;;;;;;5002265;28;9473;-72
2021/03/21 12:03:24;;;;;;;;;9.75;8.00;;;;;;;;5000812;28;9473;-71
2021/03/21 12:06:01;;;;;;;;;7.25;3.50;;;;;;;;5002155;28;9430;-71
2021/03/21 12:08:35;;;;;;;;;6.00;6.00;;;;;;;;5002575;28;9499;-70
2021/03/21 12:11:18;;;;;;;;;19.75;18.25;;;;;;;;5001335;28;9593;-71
2021/03/21 12:13:46;;;;;;;;;9.33;8.33;;;;;;;;5003239;28;9748;-71
2021/03/21 12:16:38;;;;;;;;;8.33;5.67;;;;;;;;5001780;28;9417;-69
2021/03/21 12:19:07;;;;;;;;;3.00;3.00;;;;;;;;5001526;28;10513;-69
2021/03/21 12:21:38;;;;;;;;;3.33;3.33;;;;;;;;5000458;28;9256;-69
2021/03/21 12:24:07;;;;;;;;;6.33;5.00;;;;;;;;5002667;28;9272;-70
2021/03/21 12:26:51;;;;;;;;;4.00;4.00;;;;;;;;5004034;28;9280;-70
2021/03/21 12:29:41;;;;;;;;;6.75;5.75;;;;;;;;5000441;28;9441;-70
2021/03/21 12:32:31;;;;;;;;;6.00;3.67;;;;;;;;5003736;28;9405;-70
2021/03/21 12:34:58;;;;;;;;;6.75;6.75;;;;;;;;4999644;28;9500;-69
2021/03/21 12:37:27;;;;;;;;;5.00;5.00;;;;;;;;5001100;28;10276;-70
2021/03/21 12:40:11;;;;;;;;;7.00;7.00;;;;;;;;5002443;28;9490;-69
2021/03/21 12:42:40;;;;;;;;;4.00;4.00;;;;;;;;4996840;28;9441;-71
2021/03/21 12:45:12;;;;;;;;;3.00;3.00;;;;;;;;5003753;28;9482;-70
2021/03/21 12:47:41;;;;;;;;;6.00;3.67;;;;;;;;5003093;28;9097;-71
2021/03/21 12:50:34;;;;;;;;;2.00;2.00;;;;;;;;5000729;28;9238;-71
2021/03/21 12:53:01;;;;;;;;;4.33;4.33;;;;;;;;4994180;28;9362;-70
2021/03/21 12:55:28;;;;;;;;;5.33;5.33;;;;;;;;5001807;28;9295;-68
2021/03/21 12:57:56;;;;;;;;;3.00;3.00;;;;;;;;5001235;28;9272;-70
2021/03/21 13:00:26;;;;;;;;;4.00;4.00;;;;;;;;5001176;28;9103;-70
2021/03/21 13:02:54;;;;;;;;;3.00;3.00;;;;;;;;5001805;28;9285;-70
2021/03/21 13:05:24;;;;;;;;;4.00;4.00;;;;;;;;5003516;28;9210;-70
2021/03/21 13:07:51;;;;;;;;;6.67;4.00;;;;;;;;5002464;28;9034;-69
2021/03/21 13:10:18;;;;;;;;;4.00;4.00;;;;;;;;5001846;28;10007;-70
2021/03/21 13:12:46;;;;;;;;;6.33;4.00;;;;;;;;5003984;28;9040;-70
2021/03/21 13:15:14;;;;;;;;;7.00;7.00;;;;;;;;5002247;28;9109;-71
2021/03/21 13:17:43;;;;;;;;;4.00;4.00;;;;;;;;5002839;28;9236;-71
2021/03/21 13:20:13;;;;;;;;;3.00;3.00;;;;;;;;4999559;28;9910;-71
2021/03/21 13:22:40;;;;;;;;;4.00;4.00;;;;;;;;5001025;28;9014;-71
2021/03/21 13:25:08;;;;;;;;;5.33;3.00;;;;;;;;5001285;28;9240;-71
2021/03/21 13:27:35;;;;;;;;;4.00;4.00;;;;;;;;5002065;28;9287;-71
2021/03/21 13:30:04;;;;;;;;;4.33;3.00;;;;;;;;5001570;28;9194;-71
2021/03/21 13:32:31;;;;;;;;;7.67;6.67;;;;;;;;5003578;28;9183;-71
2021/03/21 13:34:59;;;;;;;;;3.00;3.00;;;;;;;;5001490;28;9195;-72
2021/03/21 13:37:26;;;;;;;;;2.33;2.33;;;;;;;;5001093;28;9054;-71
2021/03/21 13:39:53;;;;;;;;;3.67;3.67;;;;;;;;5002727;28;9316;-71
2021/03/21 13:42:20;;;;;;;;;4.67;4.67;;;;;;;;5000654;28;9868;-71
2021/03/21 13:44:47;;;;;;;;;3.00;3.00;;;;;;;;5002661;28;9099;-71
2021/03/21 13:47:14;;;;;;;;;4.00;4.00;;;;;;;;5000023;28;9109;-71
2021/03/21 13:49:42;;;;;;;;;5.67;3.67;;;;;;;;5004869;28;9100;-72
2021/03/21 13:52:10;;;;;;;;;32.50;29.50;;;;;;;;5005148;28;9042;-72
2021/03/21 13:54:38;;;;;;;;;5.00;5.00;;;;;;;;5006129;28;9930;-71
2021/03/21 13:57:05;;;;;;;;;2.33;2.33;;;;;;;;5006575;28;9010;-71
2021/03/21 13:59:32;;;;;;;;;7.33;5.00;;;;;;;;4998278;28;8989;-71
2021/03/21 14:01:59;;;;;;;;;3.67;3.67;;;;;;;;5003006;28;9702;-71
2021/03/21 14:04:26;;;;;;;;;6.33;4.33;;;;;;;;5002286;28;8986;-71
2021/03/21 14:06:53;;;;;;;;;7.67;7.00;;;;;;;;5007204;28;9064;-72
2021/03/21 14:09:21;;;;;;;;;8.33;7.00;;;;;;;;5005022;28;9990;-72
2021/03/21 14:11:47;;;;;;;;;4.00;4.00;;;;;;;;5005020;28;9107;-72
2021/03/21 14:14:15;;;;;;;;;6.67;6.67;;;;;;;;5006956;28;9036;-71
2021/03/21 14:16:42;;;;;;;;;6.67;6.67;;;;;;;;5005472;28;9198;-71
2021/03/21 14:19:09;;;;;;;;;5.33;3.00;;;;;;;;5005881;28;9101;-72
2021/03/21 14:21:36;;;;;;;;;3.67;3.67;;;;;;;;5004679;28;9112;-71
2021/03/21 14:24:04;;;;;;;;;4.67;4.00;;;;;;;;5005656;28;9125;-74
2021/03/21 14:26:32;;;;;;;;;5.00;3.00;;;;;;;;5002871;28;9077;-71
2021/03/21 14:28:59;;;;;;;;;4.33;4.33;;;;;;;;5004024;28;8980;-71
2021/03/21 14:31:25;;;;;;;;;4.00;4.00;;;;;;;;5002224;28;9078;-71
2021/03/21 14:33:52;;;;;;;;;5.00;3.33;;;;;;;;5004355;28;9337;-72
2021/03/21 14:36:20;;;;;;;;;11.00;10.33;;;;;;;;5004780;28;9098;-72
2021/03/21 14:38:47;;;;;;;;;15.50;13.50;;;;;;;;5003148;28;9429;-72
2021/03/21 14:41:15;;;;;;;;;6.33;5.33;;;;;;;;5002706;28;9511;-71
2021/03/21 14:43:43;;;;;;;;;8.33;7.00;;;;;;;;5003643;28;9140;-72
2021/03/21 14:46:10;;;;;;;;;5.00;4.00;;;;;;;;5004375;28;9123;-71
2021/03/21 14:48:38;;;;;;;;;5.67;5.00;;;;;;;;5000394;28;8999;-71
2021/03/21 14:51:05;;;;;;;;;10.33;10.33;;;;;;;;5005076;28;9179;-71
2021/03/21 14:53:32;;;;;;;;;8.00;8.00;;;;;;;;5004412;28;10152;-71
2021/03/21 14:55:59;;;;;;;;;9.00;9.00;;;;;;;;5005494;28;9025;-72
2021/03/21 14:58:28;;;;;;;;;14.33;11.67;;;;;;;;5004308;28;8965;-71
2021/03/21 15:01:00;;;;;;;;;13.00;9.67;;;;;;;;5000396;28;9279;-72
2021/03/21 15:03:27;;;;;;;;;7.67;7.00;;;;;;;;5004509;28;9206;-71
2021/03/21 15:05:56;;;;;;;;;7.00;5.00;;;;;;;;5001892;28;9071;-71
2021/03/21 15:08:24;;;;;;;;;5.50;5.50;;;;;;;;5003453;28;8974;-71
2021/03/21 15:10:53;;;;;;;;;5.25;4.25;;;;;;;;5001941;28;9683;-71
2021/03/21 15:13:20;;;;;;;;;4.50;3.75;;;;;;;;5003864;28;8886;-72